sensor_id;sensor_type;location;lat;lon;timestamp;temperature;humidity
2611;DHT22;5612;51.134;17.058;2023-08-01T00:01:50;20.70;44.90
2611;DHT22;5612;51.134;17.058;2023-08-01T00:04:20;20.70;50.90
2611;DHT22;5612;51.134;17.058;2023-08-01T00:06:49;20.80;33.00
2611;DHT22;5612;51.134;17.058;2023-08-01T00:09:19;20.80;34.80
2611;DHT22;5612;51.134;17.058;2023-08-01T00:11:50;20.70;33.60
2611;DHT22;5612;51.134;17.058;2023-08-01T00:14:20;20.80;23.40
2611;DHT22;5612;51.134;17.058;2023-08-01T00:16:54;20.70;27.80
2611;DHT22;5612;51.134;17.058;2023-08-01T00:19:25;20.70;28.80
2611;DHT22;5612;51.134;17.058;2023-08-01T00:21:57;20.70;30.80
2611;DHT22;5612;51.134;17.058;2023-08-01T00:24:28;20.60;32.00
2611;DHT22;5612;51.134;17.058;2023-08-01T00:27:03;20.60;39.90
2611;DHT22;5612;51.134;17.058;2023-08-01T00:29:34;20.50;49.20
2611;DHT22;5612;51.134;17.058;2023-08-01T00:32:04;20.60;34.40
2611;DHT22;5612;51.134;17.058;2023-08-01T00:34:34;20.50;40.50
2611;DHT22;5612;51.134;17.058;2023-08-01T00:37:04;20.50;56.00
2611;DHT22;5612;51.134;17.058;2023-08-01T00:39:34;20.50;53.60
2611;DHT22;5612;51.134;17.058;2023-08-01T00:42:06;20.50;62.90
2611;DHT22;5612;51.134;17.058;2023-08-01T00:44:37;20.50;58.70
2611;DHT22;5612;51.134;17.058;2023-08-01T00:47:07;20.40;59.70
2611;DHT22;5612;51.134;17.058;2023-08-01T00:49:38;20.40;89.90
2611;DHT22;5612;51.134;17.058;2023-08-01T00:52:10;20.30;94.00
2611;DHT22;5612;51.134;17.058;2023-08-01T00:54:41;20.30;99.90
2611;DHT22;5612;51.134;17.058;2023-08-01T00:57:14;20.30;99.90
2611;DHT22;5612;51.134;17.058;2023-08-01T00:59:45;20.20;99.90
2611;DHT22;5612;51.134;17.058;2023-08-01T01:02:15;20.10;99.90
2611;DHT22;5612;51.134;17.058;2023-08-01T01:04:45;20.10;99.90
2611;DHT22;5612;51.134;17.058;2023-08-01T01:07:17;20.10;99.90
2611;DHT22;5612;51.134;17.058;2023-08-01T01:09:48;20.00;99.90
2611;DHT22;5612;51.134;17.058;2023-08-01T01:12:20;20.00;99.90
2611;DHT22;5612;51.134;17.058;2023-08-01T01:14:51;20.00;99.90
2611;DHT22;5612;51.134;17.058;2023-08-01T01:17:21;20.00;99.90
2611;DHT22;5612;51.134;17.058;2023-08-01T01:19:51;20.00;99.90
2611;DHT22;5612;51.134;17.058;2023-08-01T01:22:23;20.00;99.90
2611;DHT22;5612;51.134;17.058;2023-08-01T01:24:53;20.00;99.90
2611;DHT22;5612;51.134;17.058;2023-08-01T01:27:25;20.00;99.90
2611;DHT22;5612;51.134;17.058;2023-08-01T01:29:55;19.90;99.90
2611;DHT22;5612;51.134;17.058;2023-08-01T01:32:25;19.70;99.90
2611;DHT22;5612;51.134;17.058;2023-08-01T01:34:57;19.60;99.90
2611;DHT22;5612;51.134;17.058;2023-08-01T01:37:28;19.50;99.90
2611;DHT22;5612;51.134;17.058;2023-08-01T01:39:57;19.40;99.90
2611;DHT22;5612;51.134;17.058;2023-08-01T01:42:27;19.40;99.90
2611;DHT22;5612;51.134;17.058;2023-08-01T01:44:56;19.20;99.90
2611;DHT22;5612;51.134;17.058;2023-08-01T01:47:26;19.30;99.90
2611;DHT22;5612;51.134;17.058;2023-08-01T01:49:56;19.40;99.90
2611;DHT22;5612;51.134;17.058;2023-08-01T01:52:27;19.40;99.90
2611;DHT22;5612;51.134;17.058;2023-08-01T01:54:57;19.40;99.90
2611;DHT22;5612;51.134;17.058;2023-08-01T01:57:27;19.40;99.90
2611;DHT22;5612;51.134;17.058;2023-08-01T01:59:56;19.40;99.90
2611;DHT22;5612;51.134;17.058;2023-08-01T02:02:25;19.40;99.90
2611;DHT22;5612;51.134;17.058;2023-08-01T02:04:55;19.50;99.90
2611;DHT22;5612;51.134;17.058;2023-08-01T02:07:27;19.60;99.90
2611;DHT22;5612;51.134;17.058;2023-08-01T02:09:56;19.50;99.90
2611;DHT22;5612;51.134;17.058;2023-08-01T02:12:26;19.70;99.90
2611;DHT22;5612;51.134;17.058;2023-08-01T02:14:59;19.80;99.90
2611;DHT22;5612;51.134;17.058;2023-08-01T02:17:29;19.70;99.90
2611;DHT22;5612;51.134;17.058;2023-08-01T02:19:59;19.80;99.90
2611;DHT22;5612;51.134;17.058;2023-08-01T02:22:30;19.90;99.90
2611;DHT22;5612;51.134;17.058;2023-08-01T02:25:00;20.00;99.90
2611;DHT22;5612;51.134;17.058;2023-08-01T02:27:30;20.00;99.90
2611;DHT22;5612;51.134;17.058;2023-08-01T02:29:59;19.90;99.90
2611;DHT22;5612;51.134;17.058;2023-08-01T02:32:29;19.80;99.90
2611;DHT22;5612;51.134;17.058;2023-08-01T02:34:59;19.90;99.90
2611;DHT22;5612;51.134;17.058;2023-08-01T02:37:30;19.90;99.90
2611;DHT22;5612;51.134;17.058;2023-08-01T02:40:01;19.90;99.90
2611;DHT22;5612;51.134;17.058;2023-08-01T02:42:35;19.90;99.90
2611;DHT22;5612;51.134;17.058;2023-08-01T02:45:05;19.90;99.90
2611;DHT22;5612;51.134;17.058;2023-08-01T02:47:35;19.90;99.90
2611;DHT22;5612;51.134;17.058;2023-08-01T02:50:06;19.90;99.90
2611;DHT22;5612;51.134;17.058;2023-08-01T02:52:37;20.00;99.90
2611;DHT22;5612;51.134;17.058;2023-08-01T02:55:08;19.90;97.40
2611;DHT22;5612;51.134;17.058;2023-08-01T02:57:38;19.90;99.90
2611;DHT22;5612;51.134;17.058;2023-08-01T03:00:08;19.80;99.90
2611;DHT22;5612;51.134;17.058;2023-08-01T03:02:39;19.70;99.90
2611;DHT22;5612;51.134;17.058;2023-08-01T03:05:09;19.70;99.90
2611;DHT22;5612;51.134;17.058;2023-08-01T03:07:41;19.70;99.90
2611;DHT22;5612;51.134;17.058;2023-08-01T03:10:10;19.70;99.90
2611;DHT22;5612;51.134;17.058;2023-08-01T03:12:49;19.70;99.90
2611;DHT22;5612;51.134;17.058;2023-08-01T03:15:19;19.70;99.90
2611;DHT22;5612;51.134;17.058;2023-08-01T03:17:48;19.70;99.90
2611;DHT22;5612;51.134;17.058;2023-08-01T03:20:18;19.80;99.90
2611;DHT22;5612;51.134;17.058;2023-08-01T03:22:49;19.90;99.90
2611;DHT22;5612;51.134;17.058;2023-08-01T03:25:19;20.00;99.90
2611;DHT22;5612;51.134;17.058;2023-08-01T03:27:48;20.10;99.90
2611;DHT22;5612;51.134;17.058;2023-08-01T03:30:18;20.00;99.90
2611;DHT22;5612;51.134;17.058;2023-08-01T03:32:49;19.90;99.90
2611;DHT22;5612;51.134;17.058;2023-08-01T03:35:18;20.00;99.90
2611;DHT22;5612;51.134;17.058;2023-08-01T03:37:49;20.00;99.90
2611;DHT22;5612;51.134;17.058;2023-08-01T03:40:19;20.00;99.90
2611;DHT22;5612;51.134;17.058;2023-08-01T03:42:49;20.00;99.90
2611;DHT22;5612;51.134;17.058;2023-08-01T03:45:19;20.00;99.90
2611;DHT22;5612;51.134;17.058;2023-08-01T03:47:48;19.90;99.90
2611;DHT22;5612;51.134;17.058;2023-08-01T03:50:18;19.90;99.90
2611;DHT22;5612;51.134;17.058;2023-08-01T03:52:50;19.90;99.90
2611;DHT22;5612;51.134;17.058;2023-08-01T03:55:19;19.90;99.90
2611;DHT22;5612;51.134;17.058;2023-08-01T03:57:49;19.90;99.90
2611;DHT22;5612;51.134;17.058;2023-08-01T04:00:19;19.90;99.90
2611;DHT22;5612;51.134;17.058;2023-08-01T04:02:49;19.90;99.90
2611;DHT22;5612;51.134;17.058;2023-08-01T04:05:18;19.90;99.90
2611;DHT22;5612;51.134;17.058;2023-08-01T04:07:50;19.90;99.90
2611;DHT22;5612;51.134;17.058;2023-08-01T04:10:22;19.90;99.90
2611;DHT22;5612;51.134;17.058;2023-08-01T04:12:52;19.90;99.90
2611;DHT22;5612;51.134;17.058;2023-08-01T04:15:22;19.80;99.90
2611;DHT22;5612;51.134;17.058;2023-08-01T04:17:52;19.90;99.90
2611;DHT22;5612;51.134;17.058;2023-08-01T04:20:21;19.90;99.90
2611;DHT22;5612;51.134;17.058;2023-08-01T04:22:52;19.70;99.90
2611;DHT22;5612;51.134;17.058;2023-08-01T04:25:22;19.70;99.90
2611;DHT22;5612;51.134;17.058;2023-08-01T04:27:54;19.70;99.90
2611;DHT22;5612;51.134;17.058;2023-08-01T04:30:24;19.70;99.90
2611;DHT22;5612;51.134;17.058;2023-08-01T04:32:54;19.70;1.00
2611;DHT22;5612;51.134;17.058;2023-08-01T04:35:23;19.60;1.00
2611;DHT22;5612;51.134;17.058;2023-08-01T04:37:54;19.60;1.00
2611;DHT22;5612;51.134;17.058;2023-08-01T04:40:24;19.60;63.90
2611;DHT22;5612;51.134;17.058;2023-08-01T04:42:54;19.50;99.90
2611;DHT22;5612;51.134;17.058;2023-08-01T04:45:24;19.40;99.90
2611;DHT22;5612;51.134;17.058;2023-08-01T04:47:53;19.30;53.40
2611;DHT22;5612;51.134;17.058;2023-08-01T04:50:23;19.30;99.90
2611;DHT22;5612;51.134;17.058;2023-08-01T04:52:54;19.10;99.90
2611;DHT22;5612;51.134;17.058;2023-08-01T04:55:24;19.10;1.00
2611;DHT22;5612;51.134;17.058;2023-08-01T04:57:54;19.10;99.90
2611;DHT22;5612;51.134;17.058;2023-08-01T05:00:23;19.10;99.90
2611;DHT22;5612;51.134;17.058;2023-08-01T05:02:53;19.10;99.90
2611;DHT22;5612;51.134;17.058;2023-08-01T05:05:23;19.00;1.00
2611;DHT22;5612;51.134;17.058;2023-08-01T05:07:54;19.10;1.00
2611;DHT22;5612;51.134;17.058;2023-08-01T05:10:24;19.00;99.90
2611;DHT22;5612;51.134;17.058;2023-08-01T05:12:53;19.00;99.90
2611;DHT22;5612;51.134;17.058;2023-08-01T05:15:23;19.00;1.00
2611;DHT22;5612;51.134;17.058;2023-08-01T05:17:54;19.00;1.00
2611;DHT22;5612;51.134;17.058;2023-08-01T05:20:24;19.10;1.00
2611;DHT22;5612;51.134;17.058;2023-08-01T05:23:00;19.10;99.90
2611;DHT22;5612;51.134;17.058;2023-08-01T05:25:29;19.00;99.90
2611;DHT22;5612;51.134;17.058;2023-08-01T05:27:59;19.00;99.90
2611;DHT22;5612;51.134;17.058;2023-08-01T05:30:28;19.00;99.90
2611;DHT22;5612;51.134;17.058;2023-08-01T05:32:58;19.00;99.90
2611;DHT22;5612;51.134;17.058;2023-08-01T05:35:28;19.00;1.00
2611;DHT22;5612;51.134;17.058;2023-08-01T05:37:59;19.10;1.00
2611;DHT22;5612;51.134;17.058;2023-08-01T05:40:29;19.00;1.00
2611;DHT22;5612;51.134;17.058;2023-08-01T05:42:59;18.70;1.00
2611;DHT22;5612;51.134;17.058;2023-08-01T05:45:29;18.80;1.00
2611;DHT22;5612;51.134;17.058;2023-08-01T05:47:59;18.80;1.00
2611;DHT22;5612;51.134;17.058;2023-08-01T05:50:28;18.90;1.00
2611;DHT22;5612;51.134;17.058;2023-08-01T05:52:59;18.80;1.00
2611;DHT22;5612;51.134;17.058;2023-08-01T05:55:29;18.80;14.70
2611;DHT22;5612;51.134;17.058;2023-08-01T05:57:59;18.70;1.00
2611;DHT22;5612;51.134;17.058;2023-08-01T06:00:29;18.60;55.30
2611;DHT22;5612;51.134;17.058;2023-08-01T06:02:59;18.50;70.40
2611;DHT22;5612;51.134;17.058;2023-08-01T06:05:30;18.50;99.90
2611;DHT22;5612;51.134;17.058;2023-08-01T06:08:01;18.40;99.90
2611;DHT22;5612;51.134;17.058;2023-08-01T06:10:31;18.30;99.90
2611;DHT22;5612;51.134;17.058;2023-08-01T06:13:01;18.40;99.90
2611;DHT22;5612;51.134;17.058;2023-08-01T06:15:31;18.40;99.90
2611;DHT22;5612;51.134;17.058;2023-08-01T06:18:01;18.50;99.90
2611;DHT22;5612;51.134;17.058;2023-08-01T06:20:31;18.50;99.90
2611;DHT22;5612;51.134;17.058;2023-08-01T06:23:02;18.50;99.90
2611;DHT22;5612;51.134;17.058;2023-08-01T06:25:32;18.50;99.90
2611;DHT22;5612;51.134;17.058;2023-08-01T06:28:02;18.50;99.90
2611;DHT22;5612;51.134;17.058;2023-08-01T06:30:32;18.50;99.90
2611;DHT22;5612;51.134;17.058;2023-08-01T06:33:01;18.60;99.90
2611;DHT22;5612;51.134;17.058;2023-08-01T06:35:31;18.50;99.90
2611;DHT22;5612;51.134;17.058;2023-08-01T06:38:02;18.70;99.90
2611;DHT22;5612;51.134;17.058;2023-08-01T06:40:32;18.70;96.70
2611;DHT22;5612;51.134;17.058;2023-08-01T06:43:02;18.70;89.70
2611;DHT22;5612;51.134;17.058;2023-08-01T06:45:32;18.60;94.40
2611;DHT22;5612;51.134;17.058;2023-08-01T06:48:02;18.50;99.90
2611;DHT22;5612;51.134;17.058;2023-08-01T06:50:31;18.60;99.90
2611;DHT22;5612;51.134;17.058;2023-08-01T06:53:03;18.60;99.90
2611;DHT22;5612;51.134;17.058;2023-08-01T06:55:33;18.50;97.50
2611;DHT22;5612;51.134;17.058;2023-08-01T06:58:02;18.70;91.30
2611;DHT22;5612;51.134;17.058;2023-08-01T07:00:32;18.60;94.00
2611;DHT22;5612;51.134;17.058;2023-08-01T07:03:02;18.60;99.40
2611;DHT22;5612;51.134;17.058;2023-08-01T07:05:32;18.50;99.90
2611;DHT22;5612;51.134;17.058;2023-08-01T07:08:03;18.50;99.90
2611;DHT22;5612;51.134;17.058;2023-08-01T07:10:35;18.40;99.90
2611;DHT22;5612;51.134;17.058;2023-08-01T07:13:04;18.50;99.90
2611;DHT22;5612;51.134;17.058;2023-08-01T07:15:34;18.60;99.90
2611;DHT22;5612;51.134;17.058;2023-08-01T07:18:04;18.60;99.90
2611;DHT22;5612;51.134;17.058;2023-08-01T07:20:34;18.70;99.90
2611;DHT22;5612;51.134;17.058;2023-08-01T07:23:05;18.80;99.90
2611;DHT22;5612;51.134;17.058;2023-08-01T07:25:35;18.70;99.90
2611;DHT22;5612;51.134;17.058;2023-08-01T07:28:05;18.60;99.90
2611;DHT22;5612;51.134;17.058;2023-08-01T07:30:34;18.60;99.90
2611;DHT22;5612;51.134;17.058;2023-08-01T07:33:04;18.70;99.90
2611;DHT22;5612;51.134;17.058;2023-08-01T07:35:34;18.70;99.90
2611;DHT22;5612;51.134;17.058;2023-08-01T07:38:05;18.90;99.90
2611;DHT22;5612;51.134;17.058;2023-08-01T07:40:37;19.00;99.90
2611;DHT22;5612;51.134;17.058;2023-08-01T07:43:06;19.20;99.90
2611;DHT22;5612;51.134;17.058;2023-08-01T07:45:37;19.30;89.00
2611;DHT22;5612;51.134;17.058;2023-08-01T07:48:06;19.20;90.00
2611;DHT22;5612;51.134;17.058;2023-08-01T07:50:36;19.30;45.20
2611;DHT22;5612;51.134;17.058;2023-08-01T07:53:07;19.30;13.80
2611;DHT22;5612;51.134;17.058;2023-08-01T07:55:37;19.40;27.00
2611;DHT22;5612;51.134;17.058;2023-08-01T07:58:07;19.50;1.00
2611;DHT22;5612;51.134;17.058;2023-08-01T08:00:37;19.90;1.00
2611;DHT22;5612;51.134;17.058;2023-08-01T08:03:07;20.10;1.00
2611;DHT22;5612;51.134;17.058;2023-08-01T08:05:37;20.30;1.00
2611;DHT22;5612;51.134;17.058;2023-08-01T08:08:10;20.40;99.90
2611;DHT22;5612;51.134;17.058;2023-08-01T08:10:39;20.50;99.90
2611;DHT22;5612;51.134;17.058;2023-08-01T08:13:10;20.50;99.90
2611;DHT22;5612;51.134;17.058;2023-08-01T08:15:39;20.50;41.50
2611;DHT22;5612;51.134;17.058;2023-08-01T08:18:09;20.40;1.00
2611;DHT22;5612;51.134;17.058;2023-08-01T08:20:42;20.30;1.00
2611;DHT22;5612;51.134;17.058;2023-08-01T08:23:14;20.20;99.90
2611;DHT22;5612;51.134;17.058;2023-08-01T08:25:44;20.20;1.00
2611;DHT22;5612;51.134;17.058;2023-08-01T08:28:15;20.10;1.00
2611;DHT22;5612;51.134;17.058;2023-08-01T08:30:44;20.10;1.00
2611;DHT22;5612;51.134;17.058;2023-08-01T08:33:20;20.00;1.00
2611;DHT22;5612;51.134;17.058;2023-08-01T08:35:50;19.80;1.00
2611;DHT22;5612;51.134;17.058;2023-08-01T08:38:22;19.80;1.00
2611;DHT22;5612;51.134;17.058;2023-08-01T08:40:58;19.80;1.00
2611;DHT22;5612;51.134;17.058;2023-08-01T08:43:31;19.80;1.00
2611;DHT22;5612;51.134;17.058;2023-08-01T08:46:03;19.70;44.00
2611;DHT22;5612;51.134;17.058;2023-08-01T08:48:35;19.80;1.00
2611;DHT22;5612;51.134;17.058;2023-08-01T08:51:07;19.90;1.00
2611;DHT22;5612;51.134;17.058;2023-08-01T08:53:40;19.90;1.00
2611;DHT22;5612;51.134;17.058;2023-08-01T08:56:11;19.90;1.00
2611;DHT22;5612;51.134;17.058;2023-08-01T08:58:42;19.90;1.00
2611;DHT22;5612;51.134;17.058;2023-08-01T09:01:12;20.00;1.00
2611;DHT22;5612;51.134;17.058;2023-08-01T09:03:42;20.00;1.00
2611;DHT22;5612;51.134;17.058;2023-08-01T09:06:15;20.10;1.00
2611;DHT22;5612;51.134;17.058;2023-08-01T09:08:50;20.30;1.00
2611;DHT22;5612;51.134;17.058;2023-08-01T09:11:20;20.50;99.90
2611;DHT22;5612;51.134;17.058;2023-08-01T09:13:50;20.50;1.00
2611;DHT22;5612;51.134;17.058;2023-08-01T09:16:20;20.40;99.90
2611;DHT22;5612;51.134;17.058;2023-08-01T09:18:50;20.40;99.90
2611;DHT22;5612;51.134;17.058;2023-08-01T09:21:21;20.20;99.90
2611;DHT22;5612;51.134;17.058;2023-08-01T09:23:53;20.30;99.90
2611;DHT22;5612;51.134;17.058;2023-08-01T09:26:22;20.30;99.90
2611;DHT22;5612;51.134;17.058;2023-08-01T09:28:58;20.30;99.90
2611;DHT22;5612;51.134;17.058;2023-08-01T09:31:29;20.40;99.90
2611;DHT22;5612;51.134;17.058;2023-08-01T09:33:59;20.50;99.90
2611;DHT22;5612;51.134;17.058;2023-08-01T09:36:29;20.30;99.90
2611;DHT22;5612;51.134;17.058;2023-08-01T09:39:03;20.10;1.00
2611;DHT22;5612;51.134;17.058;2023-08-01T09:41:34;20.10;1.00
2611;DHT22;5612;51.134;17.058;2023-08-01T09:44:04;20.00;1.00
2611;DHT22;5612;51.134;17.058;2023-08-01T09:46:34;20.10;1.00
2611;DHT22;5612;51.134;17.058;2023-08-01T09:49:10;20.30;99.90
2611;DHT22;5612;51.134;17.058;2023-08-01T09:51:50;20.20;99.90
2611;DHT22;5612;51.134;17.058;2023-08-01T09:54:21;20.30;99.90
2611;DHT22;5612;51.134;17.058;2023-08-01T09:56:53;20.40;1.00
2611;DHT22;5612;51.134;17.058;2023-08-01T09:59:24;20.50;1.00
2611;DHT22;5612;51.134;17.058;2023-08-01T10:01:55;20.50;99.90
2611;DHT22;5612;51.134;17.058;2023-08-01T10:04:28;20.50;1.00
2611;DHT22;5612;51.134;17.058;2023-08-01T10:06:59;20.60;99.90
2611;DHT22;5612;51.134;17.058;2023-08-01T10:09:31;20.60;99.90
2611;DHT22;5612;51.134;17.058;2023-08-01T10:12:05;20.80;99.90
2611;DHT22;5612;51.134;17.058;2023-08-01T10:14:36;20.80;99.90
2611;DHT22;5612;51.134;17.058;2023-08-01T10:17:06;21.00;1.00
2611;DHT22;5612;51.134;17.058;2023-08-01T10:19:38;21.10;1.00
2611;DHT22;5612;51.134;17.058;2023-08-01T10:22:09;21.20;99.90
2611;DHT22;5612;51.134;17.058;2023-08-01T10:24:41;21.30;1.00
2611;DHT22;5612;51.134;17.058;2023-08-01T10:27:13;21.40;99.90
2611;DHT22;5612;51.134;17.058;2023-08-01T10:29:43;21.50;31.90
2611;DHT22;5612;51.134;17.058;2023-08-01T10:32:14;21.60;16.10
2611;DHT22;5612;51.134;17.058;2023-08-01T10:34:51;21.50;65.80
2611;DHT22;5612;51.134;17.058;2023-08-01T10:37:21;21.40;99.90
2611;DHT22;5612;51.134;17.058;2023-08-01T10:39:58;21.40;99.90
2611;DHT22;5612;51.134;17.058;2023-08-01T10:42:38;21.30;99.90
2611;DHT22;5612;51.134;17.058;2023-08-01T10:45:19;21.40;84.20
2611;DHT22;5612;51.134;17.058;2023-08-01T10:47:49;21.40;1.00
2611;DHT22;5612;51.134;17.058;2023-08-01T10:50:19;21.50;99.90
2611;DHT22;5612;51.134;17.058;2023-08-01T10:52:49;21.30;99.90
2611;DHT22;5612;51.134;17.058;2023-08-01T10:55:43;21.40;1.00
2611;DHT22;5612;51.134;17.058;2023-08-01T10:58:14;21.40;99.90
2611;DHT22;5612;51.134;17.058;2023-08-01T11:00:44;21.20;1.00
2611;DHT22;5612;51.134;17.058;2023-08-01T11:03:13;21.00;1.00
2611;DHT22;5612;51.134;17.058;2023-08-01T11:05:44;20.80;35.60
2611;DHT22;5612;51.134;17.058;2023-08-01T11:08:13;20.70;99.90
2611;DHT22;5612;51.134;17.058;2023-08-01T11:10:49;20.70;1.00
2611;DHT22;5612;51.134;17.058;2023-08-01T11:13:19;20.60;1.00
2611;DHT22;5612;51.134;17.058;2023-08-01T11:15:49;20.50;1.00
2611;DHT22;5612;51.134;17.058;2023-08-01T11:18:21;20.50;1.00
2611;DHT22;5612;51.134;17.058;2023-08-01T11:20:51;20.40;1.00
2611;DHT22;5612;51.134;17.058;2023-08-01T11:23:28;20.20;1.00
2611;DHT22;5612;51.134;17.058;2023-08-01T11:26:00;20.10;18.00
2611;DHT22;5612;51.134;17.058;2023-08-01T11:28:30;20.30;99.90
2611;DHT22;5612;51.134;17.058;2023-08-01T11:31:00;20.40;1.00
2611;DHT22;5612;51.134;17.058;2023-08-01T11:33:29;20.60;99.90
2611;DHT22;5612;51.134;17.058;2023-08-01T11:35:59;20.70;1.00
2611;DHT22;5612;51.134;17.058;2023-08-01T11:38:30;20.90;1.00
2611;DHT22;5612;51.134;17.058;2023-08-01T11:41:04;21.00;99.90
2611;DHT22;5612;51.134;17.058;2023-08-01T11:43:40;21.40;54.30
2611;DHT22;5612;51.134;17.058;2023-08-01T11:46:11;21.50;1.00
2611;DHT22;5612;51.134;17.058;2023-08-01T11:48:45;21.60;1.00
2611;DHT22;5612;51.134;17.058;2023-08-01T11:51:18;21.80;99.90
2611;DHT22;5612;51.134;17.058;2023-08-01T11:53:58;21.80;99.90
2611;DHT22;5612;51.134;17.058;2023-08-01T11:56:31;21.70;1.00
2611;DHT22;5612;51.134;17.058;2023-08-01T11:59:08;21.80;1.00
2611;DHT22;5612;51.134;17.058;2023-08-01T12:01:39;22.00;99.90
2611;DHT22;5612;51.134;17.058;2023-08-01T12:04:09;22.10;99.90
2611;DHT22;5612;51.134;17.058;2023-08-01T12:06:39;22.20;99.90
2611;DHT22;5612;51.134;17.058;2023-08-01T12:09:12;22.50;99.90
2611;DHT22;5612;51.134;17.058;2023-08-01T12:11:43;22.70;99.90
2611;DHT22;5612;51.134;17.058;2023-08-01T12:14:14;22.80;99.90
2611;DHT22;5612;51.134;17.058;2023-08-01T12:16:46;23.10;99.90
2611;DHT22;5612;51.134;17.058;2023-08-01T12:19:17;23.50;99.90
2611;DHT22;5612;51.134;17.058;2023-08-01T12:21:48;24.10;34.60
2611;DHT22;5612;51.134;17.058;2023-08-01T12:24:17;24.30;6.20
2611;DHT22;5612;51.134;17.058;2023-08-01T12:26:49;24.60;1.00
2611;DHT22;5612;51.134;17.058;2023-08-01T12:29:19;24.30;1.00
2611;DHT22;5612;51.134;17.058;2023-08-01T12:31:49;24.10;1.00
2611;DHT22;5612;51.134;17.058;2023-08-01T12:34:19;24.10;1.00
2611;DHT22;5612;51.134;17.058;2023-08-01T12:36:48;24.10;1.00
2611;DHT22;5612;51.134;17.058;2023-08-01T12:39:18;23.90;1.00
2611;DHT22;5612;51.134;17.058;2023-08-01T12:41:50;23.80;1.00
2611;DHT22;5612;51.134;17.058;2023-08-01T12:44:20;23.90;1.00
2611;DHT22;5612;51.134;17.058;2023-08-01T12:46:50;24.20;1.00
2611;DHT22;5612;51.134;17.058;2023-08-01T12:49:20;24.30;1.00
2611;DHT22;5612;51.134;17.058;2023-08-01T12:51:49;24.20;1.00
2611;DHT22;5612;51.134;17.058;2023-08-01T12:54:19;24.00;1.00
2611;DHT22;5612;51.134;17.058;2023-08-01T12:56:50;23.80;1.00
2611;DHT22;5612;51.134;17.058;2023-08-01T12:59:20;23.90;1.00
2611;DHT22;5612;51.134;17.058;2023-08-01T13:01:50;23.90;1.00
2611;DHT22;5612;51.134;17.058;2023-08-01T13:04:20;23.90;1.00
2611;DHT22;5612;51.134;17.058;2023-08-01T13:06:50;23.80;1.00
2611;DHT22;5612;51.134;17.058;2023-08-01T13:09:20;23.70;1.00
2611;DHT22;5612;51.134;17.058;2023-08-01T13:11:51;23.70;1.00
2611;DHT22;5612;51.134;17.058;2023-08-01T13:14:24;23.80;1.00
2611;DHT22;5612;51.134;17.058;2023-08-01T13:16:54;24.00;1.00
2611;DHT22;5612;51.134;17.058;2023-08-01T13:19:24;24.60;1.00
2611;DHT22;5612;51.134;17.058;2023-08-01T13:21:53;25.10;1.00
2611;DHT22;5612;51.134;17.058;2023-08-01T13:24:23;25.50;1.00
2611;DHT22;5612;51.134;17.058;2023-08-01T13:26:54;25.70;1.00
2611;DHT22;5612;51.134;17.058;2023-08-01T13:29:24;25.50;1.00
2611;DHT22;5612;51.134;17.058;2023-08-01T13:31:54;25.70;1.00
2611;DHT22;5612;51.134;17.058;2023-08-01T13:34:24;25.70;1.00
2611;DHT22;5612;51.134;17.058;2023-08-01T13:36:54;25.80;1.00
2611;DHT22;5612;51.134;17.058;2023-08-01T13:39:25;25.50;1.00
2611;DHT22;5612;51.134;17.058;2023-08-01T13:41:56;25.70;1.00
2611;DHT22;5612;51.134;17.058;2023-08-01T13:44:26;26.00;1.00
2611;DHT22;5612;51.134;17.058;2023-08-01T13:46:56;26.80;1.00
2611;DHT22;5612;51.134;17.058;2023-08-01T13:49:26;26.60;1.00
2611;DHT22;5612;51.134;17.058;2023-08-01T13:51:56;26.40;1.00
2611;DHT22;5612;51.134;17.058;2023-08-01T13:54:25;26.30;1.00
2611;DHT22;5612;51.134;17.058;2023-08-01T13:56:57;26.40;1.00
2611;DHT22;5612;51.134;17.058;2023-08-01T13:59:26;27.10;1.00
2611;DHT22;5612;51.134;17.058;2023-08-01T14:01:57;27.90;1.00
2611;DHT22;5612;51.134;17.058;2023-08-01T14:04:27;28.30;1.00
2611;DHT22;5612;51.134;17.058;2023-08-01T14:06:56;27.50;1.00
2611;DHT22;5612;51.134;17.058;2023-08-01T14:09:26;26.50;1.00
2611;DHT22;5612;51.134;17.058;2023-08-01T14:11:59;25.60;1.00
2611;DHT22;5612;51.134;17.058;2023-08-01T14:14:30;25.00;1.00
2611;DHT22;5612;51.134;17.058;2023-08-01T14:17:00;24.70;1.00
2611;DHT22;5612;51.134;17.058;2023-08-01T14:19:30;24.40;1.00
2611;DHT22;5612;51.134;17.058;2023-08-01T14:21:59;24.20;1.00
2611;DHT22;5612;51.134;17.058;2023-08-01T14:24:29;24.10;1.00
2611;DHT22;5612;51.134;17.058;2023-08-01T14:27:00;23.90;1.00
2611;DHT22;5612;51.134;17.058;2023-08-01T14:29:30;23.80;1.00
2611;DHT22;5612;51.134;17.058;2023-08-01T14:32:00;23.80;1.00
2611;DHT22;5612;51.134;17.058;2023-08-01T14:34:30;23.80;1.00
2611;DHT22;5612;51.134;17.058;2023-08-01T14:37:00;23.80;1.00
2611;DHT22;5612;51.134;17.058;2023-08-01T14:39:30;23.70;1.00
2611;DHT22;5612;51.134;17.058;2023-08-01T14:42:01;23.80;1.00
2611;DHT22;5612;51.134;17.058;2023-08-01T14:44:32;24.00;1.00
2611;DHT22;5612;51.134;17.058;2023-08-01T14:47:02;24.00;1.00
2611;DHT22;5612;51.134;17.058;2023-08-01T14:49:31;24.00;1.00
2611;DHT22;5612;51.134;17.058;2023-08-01T14:52:01;24.00;1.00
2611;DHT22;5612;51.134;17.058;2023-08-01T14:54:31;24.00;1.00
2611;DHT22;5612;51.134;17.058;2023-08-01T14:57:10;24.00;1.00
2611;DHT22;5612;51.134;17.058;2023-08-01T14:59:40;23.90;1.00
2611;DHT22;5612;51.134;17.058;2023-08-01T15:02:09;24.10;1.00
2611;DHT22;5612;51.134;17.058;2023-08-01T15:04:39;23.90;1.00
2611;DHT22;5612;51.134;17.058;2023-08-01T15:07:09;23.80;1.00
2611;DHT22;5612;51.134;17.058;2023-08-01T15:09:42;23.90;1.00
2611;DHT22;5612;51.134;17.058;2023-08-01T15:12:14;23.70;1.00
2611;DHT22;5612;51.134;17.058;2023-08-01T15:14:43;23.70;1.00
2611;DHT22;5612;51.134;17.058;2023-08-01T15:17:13;23.70;1.00
2611;DHT22;5612;51.134;17.058;2023-08-01T15:19:43;23.80;1.00
2611;DHT22;5612;51.134;17.058;2023-08-01T15:22:15;23.90;1.00
2611;DHT22;5612;51.134;17.058;2023-08-01T15:24:45;24.00;1.00
2611;DHT22;5612;51.134;17.058;2023-08-01T15:27:17;23.90;1.00
2611;DHT22;5612;51.134;17.058;2023-08-01T15:29:46;23.90;1.00
2611;DHT22;5612;51.134;17.058;2023-08-01T15:32:16;23.80;1.00
2611;DHT22;5612;51.134;17.058;2023-08-01T15:34:47;23.70;1.00
2611;DHT22;5612;51.134;17.058;2023-08-01T15:37:16;23.70;1.00
2611;DHT22;5612;51.134;17.058;2023-08-01T15:39:47;23.70;1.00
2611;DHT22;5612;51.134;17.058;2023-08-01T15:42:18;23.70;1.00
2611;DHT22;5612;51.134;17.058;2023-08-01T15:44:48;23.60;1.00
2611;DHT22;5612;51.134;17.058;2023-08-01T15:47:17;23.50;1.00
2611;DHT22;5612;51.134;17.058;2023-08-01T15:49:47;23.60;1.00
2611;DHT22;5612;51.134;17.058;2023-08-01T15:52:17;23.70;1.00
2611;DHT22;5612;51.134;17.058;2023-08-01T15:54:47;23.70;1.00
2611;DHT22;5612;51.134;17.058;2023-08-01T15:57:18;23.60;1.00
2611;DHT22;5612;51.134;17.058;2023-08-01T15:59:49;23.40;1.00
2611;DHT22;5612;51.134;17.058;2023-08-01T16:02:20;23.20;1.00
2611;DHT22;5612;51.134;17.058;2023-08-01T16:04:52;23.30;1.00
2611;DHT22;5612;51.134;17.058;2023-08-01T16:07:22;23.30;1.00
2611;DHT22;5612;51.134;17.058;2023-08-01T16:09:53;23.30;1.00
2611;DHT22;5612;51.134;17.058;2023-08-01T16:12:24;23.20;1.00
2611;DHT22;5612;51.134;17.058;2023-08-01T16:14:55;23.20;1.00